This is the latest recevied weather packets stored in our database for station/object EB1BCG-1. If no packets are shown the sender has not sent any weather packets the latest 1 day(s).
| Time | Temp. | Humidity | Pressure | Rain* | Wind** | Luminosity | Snow |
|---|---|---|---|---|---|---|---|
| 1778106517 | 6.11° C | 99% | 1012.1 hPa | 0 mm | 0 m/s | - | - |
| 1778105912 | 6.11° C | 99% | 1012.1 hPa | 0 mm | 0 m/s | - | - |
| 1778102268 | 6.67° C | 98% | 1012.2 hPa | 0 mm | 0 m/s | - | - |
| 1778099841 | 7.78° C | 91% | 1011.7 hPa | 0 mm | 0 m/s | - | - |
| 1778096807 | 8.33° C | 80% | 1011.2 hPa | 0 mm | 0 m/s | - | - |
| 1778095593 | 8.89° C | 76% | 1011 hPa | 0 mm | 0 m/s | - | - |
| 1778094986 | 9.44° C | 73% | 1010.8 hPa | 0 mm | 0 m/s | - | - |
| 1778092560 | 10.56° C | 64% | 1010.3 hPa | 0 mm | 0 m/s | - | - |
| 1778091346 | 11.11° C | 64% | 1010.1 hPa | 0 mm | 0 m/s | - | - |
| 1778090740 | 11.11° C | 63% | 1010 hPa | 0 mm | 0 m/s | - | - |
| 1778085280 | 14.44° C | 51% | 1010 hPa | 0 mm | 0 m/s | - | - |
| 1778077402 | 19.44° C | 38% | 1010.1 hPa | 0 mm | 0 m/s | - | - |
| 1778076182 | 20° C | 42% | 1010.2 hPa | 0 mm | 0 m/s | - | - |
| 1778073147 | 19.44° C | 38% | 1010.6 hPa | 0 mm | 0 m/s | - | - |
| 1778072541 | 18.89° C | 41% | 1010.7 hPa | 0 mm | 0 m/s | - | - |
| 1778071934 | 21.11° C | 40% | 1010.7 hPa | 0 mm | 0 m/s | - | - |
| 1778070721 | 20° C | 42% | 1010.8 hPa | 0 mm | 0 m/s | - | - |
| 1778069507 | 20.56° C | 40% | 1010.9 hPa | 0 mm | 0 m/s | - | - |
| 1778068900 | 18.89° C | 38% | 1010.9 hPa | 0 mm | 0 m/s | - | - |
| 1778067687 | 19.44° C | 42% | 1011.2 hPa | 0 mm | 0 m/s | - | - |
| 1778066473 | 18.33° C | 44% | 1011.3 hPa | 0 mm | 0 m/s | - | - |
| 1778065279 | 16.67° C | 45% | 1011.5 hPa | 0 mm | 0 m/s | - | - |
| 1778064065 | 16.11° C | 47% | 1011.8 hPa | 0 mm | 0 m/s | - | - |
| 1778062853 | 15° C | 49% | 1011.8 hPa | 0 mm | 0 m/s | - | - |
| 1778061027 | 13.89° C | 55% | 1012 hPa | 0 mm | 0 m/s | - | - |
* Rain latest hour (hover to see other rain measurements)
** Current wind speed in m/s (hover to see current wind gust speed)